Time;durP1;ratioP1;P1;durP2;ratioP2;P2;SDS_P1;SDS_P2;PMS_P1;PMS_P2;Temp;Humidity;BMP_temperature;BMP_pressure;BME280_temperature;BME280_humidity;BME280_pressure;Samples;Min_cycle;Max_cycle;Signal;HPM_P1;HPM_P2
2022/07/22 00:01:33;;;;;;;1.38;0.77;;;15.40;99.90;;;;;;5071382;28;20112;-69
2022/07/22 00:03:59;;;;;;;2.60;1.30;;;15.20;99.90;;;;;;5070956;28;20052;-69
2022/07/22 00:06:25;;;;;;;;;;;15.30;99.90;;;;;;5075009;28;20113;-69
2022/07/22 00:08:51;;;;;;;2.70;1.00;;;15.50;99.90;;;;;;5103458;28;19916;-69
2022/07/22 00:11:16;;;;;;;3.45;1.25;;;15.60;99.90;;;;;;5073766;28;20044;-68
2022/07/22 00:13:42;;;;;;;1.85;0.80;;;15.40;99.90;;;;;;5068215;28;20082;-69
2022/07/22 00:16:08;;;;;;;2.78;0.90;;;15.50;99.90;;;;;;5080272;28;20064;-69
2022/07/22 00:18:33;;;;;;;1.27;0.70;;;15.40;99.90;;;;;;5084314;28;20036;-69
2022/07/22 00:20:59;;;;;;;3.03;1.00;;;15.40;99.90;;;;;;5079920;28;20128;-69
2022/07/22 00:23:25;;;;;;;2.05;0.98;;;15.50;99.90;;;;;;5075960;28;20047;-69
2022/07/22 00:25:50;;;;;;;4.15;0.90;;;15.40;99.90;;;;;;5062939;28;20071;-69
2022/07/22 00:28:16;;;;;;;2.25;1.00;;;15.60;99.90;;;;;;5073858;28;20044;-69
2022/07/22 00:30:42;;;;;;;2.17;0.80;;;15.50;99.90;;;;;;5072986;28;20055;-69
2022/07/22 00:33:08;;;;;;;4.82;1.45;;;15.50;99.90;;;;;;5071980;28;20051;-69
2022/07/22 00:35:34;;;;;;;2.63;1.05;;;15.40;99.90;;;;;;5078459;28;20036;-76
2022/07/22 00:37:59;;;;;;;1.20;0.70;;;15.50;99.90;;;;;;5072429;28;20040;-75
2022/07/22 00:40:25;;;;;;;1.88;0.80;;;15.50;99.90;;;;;;5059173;28;20200;-76
2022/07/22 00:42:52;;;;;;;2.38;0.80;;;15.50;99.90;;;;;;5058167;28;20078;-76
2022/07/22 00:45:18;;;;;;;1.70;0.70;;;15.50;99.90;;;;;;5078449;28;20055;-76
2022/07/22 00:47:44;;;;;;;;;;;15.50;99.90;;;;;;5073197;28;20479;-75
2022/07/22 00:50:11;;;;;;;2.72;0.82;;;15.40;99.90;;;;;;5078943;28;19975;-76
2022/07/22 00:52:37;;;;;;;2.17;0.90;;;15.50;99.90;;;;;;5068646;28;20132;-75
2022/07/22 00:55:05;;;;;;;2.85;0.90;;;15.60;99.90;;;;;;5070436;28;20045;-75
2022/07/22 00:57:31;;;;;;;1.98;0.80;;;15.50;99.90;;;;;;5073032;28;20122;-76
2022/07/22 00:59:57;;;;;;;2.10;0.85;;;15.50;99.90;;;;;;5086262;28;20118;-76
2022/07/22 01:02:22;;;;;;;1.40;0.77;;;15.50;99.90;;;;;;5070101;28;20036;-75
2022/07/22 01:04:48;;;;;;;2.60;0.85;;;15.60;99.90;;;;;;5053751;28;20586;-75
2022/07/22 01:07:14;;;;;;;0.80;0.50;;;15.60;99.90;;;;;;5052697;28;20087;-75
2022/07/22 01:09:44;;;;;;;2.42;1.02;;;15.60;99.90;;;;;;5059330;28;20499;-75
2022/07/22 01:12:10;;;;;;;1.33;0.60;;;15.60;99.90;;;;;;5082506;28;20399;-75
2022/07/22 01:14:36;;;;;;;1.88;0.70;;;15.50;99.90;;;;;;5062838;28;20033;-75
2022/07/22 01:17:02;;;;;;;1.58;0.68;;;15.50;99.90;;;;;;5082304;28;20044;-75
2022/07/22 01:19:28;;;;;;;1.95;0.60;;;15.50;99.90;;;;;;5064104;28;20032;-74
2022/07/22 01:21:54;;;;;;;1.73;0.60;;;15.60;99.90;;;;;;5075977;28;20136;-75
2022/07/22 01:24:20;;;;;;;2.50;0.90;;;15.60;99.90;;;;;;5053020;28;20079;-75
2022/07/22 01:26:46;;;;;;;;;;;15.60;99.90;;;;;;5066826;28;20140;-75
2022/07/22 01:29:11;;;;;;;2.70;0.85;;;15.60;99.90;;;;;;5077742;28;19923;-75
2022/07/22 01:31:37;;;;;;;2.45;0.80;;;15.50;99.90;;;;;;5078533;28;20040;-75
2022/07/22 01:34:03;;;;;;;0.75;0.60;;;15.50;99.90;;;;;;5067996;28;20382;-75
2022/07/22 01:36:29;;;;;;;1.02;0.52;;;15.50;99.90;;;;;;5071992;28;20750;-75
2022/07/22 01:38:55;;;;;;;2.78;0.70;;;15.50;99.90;;;;;;5073187;28;20084;-75
2022/07/22 01:41:20;;;;;;;2.72;0.80;;;15.50;99.90;;;;;;5078429;28;20044;-75
2022/07/22 01:43:46;;;;;;;1.73;0.80;;;15.50;99.90;;;;;;5079402;28;20044;-76
2022/07/22 01:46:12;;;;;;;1.83;0.75;;;15.50;99.90;;;;;;5071864;28;20041;-75
2022/07/22 01:48:38;;;;;;;3.03;0.90;;;15.50;99.90;;;;;;5069472;28;20136;-75
2022/07/22 01:51:04;;;;;;;;;;;15.60;99.90;;;;;;5052865;28;20505;-75
2022/07/22 01:53:29;;;;;;;1.08;0.60;;;15.50;99.90;;;;;;5086350;28;19920;-75
2022/07/22 01:55:55;;;;;;;2.58;0.90;;;15.50;99.90;;;;;;5052728;28;20040;-75
2022/07/22 01:58:21;;;;;;;3.38;0.82;;;15.50;99.90;;;;;;5052869;28;20048;-75
2022/07/22 02:00:47;;;;;;;1.90;0.80;;;15.50;99.90;;;;;;5068315;28;20081;-75
2022/07/22 02:03:13;;;;;;;2.10;0.77;;;15.50;99.90;;;;;;5068251;28;20401;-75
2022/07/22 02:05:39;;;;;;;1.98;0.70;;;15.60;99.90;;;;;;5067207;28;20048;-76
2022/07/22 02:08:08;;;;;;;1.42;0.60;;;15.50;99.90;;;;;;5070023;28;20052;-75
2022/07/22 02:10:34;;;;;;;1.42;0.50;;;15.50;99.90;;;;;;5074701;28;20036;-76
2022/07/22 02:13:00;;;;;;;2.10;0.75;;;15.50;99.90;;;;;;5086227;28;20573;-75
2022/07/22 02:15:27;;;;;;;3.03;0.80;;;15.50;99.90;;;;;;5083146;28;20088;-75
2022/07/22 02:17:53;;;;;;;;;;;15.50;99.90;;;;;;5078567;28;20043;-75
2022/07/22 02:20:19;;;;;;;2.20;0.80;;;15.50;99.90;;;;;;5111723;27;20383;-76
2022/07/22 02:22:44;;;;;;;2.47;0.80;;;15.50;99.90;;;;;;5075853;28;20081;-75
2022/07/22 02:25:10;;;;;;;1.65;0.65;;;15.50;99.90;;;;;;5045738;28;20049;-75
2022/07/22 02:27:36;;;;;;;;;;;15.50;99.90;;;;;;5101827;28;20040;-76
2022/07/22 02:30:04;;;;;;;1.52;0.70;;;15.50;99.90;;;;;;5083017;28;20400;-75
2022/07/22 02:32:29;;;;;;;2.70;0.85;;;15.50;99.90;;;;;;5073811;28;20127;-76
2022/07/22 02:34:55;;;;;;;1.77;0.75;;;15.50;99.90;;;;;;5046938;28;20139;-75
2022/07/22 02:37:21;;;;;;;1.45;0.60;;;15.50;99.90;;;;;;5107950;27;20093;-75
2022/07/22 02:39:47;;;;;;;1.65;0.70;;;15.50;99.90;;;;;;5085472;28;20379;-75
2022/07/22 02:42:13;;;;;;;0.90;0.40;;;15.50;99.90;;;;;;5071666;28;20429;-75
2022/07/22 02:44:38;;;;;;;0.70;0.47;;;15.50;99.90;;;;;;5088321;28;20109;-76
2022/07/22 02:47:04;;;;;;;2.33;0.70;;;15.50;99.90;;;;;;5084920;28;20048;-75
2022/07/22 02:49:30;;;;;;;1.63;0.63;;;15.50;99.90;;;;;;5054604;28;20114;-75
2022/07/22 02:51:55;;;;;;;0.70;0.50;;;15.40;99.90;;;;;;5073364;28;20128;-75
2022/07/22 02:54:21;;;;;;;1.40;0.60;;;15.40;99.90;;;;;;5091345;28;20388;-75
2022/07/22 02:56:47;;;;;;;1.27;0.60;;;15.40;99.90;;;;;;5067647;28;20553;-75
2022/07/22 02:59:12;;;;;;;1.67;0.65;;;15.40;99.90;;;;;;5086439;28;20036;-75
2022/07/22 03:01:38;;;;;;;1.52;0.52;;;15.50;99.90;;;;;;5077240;28;20051;-75
2022/07/22 03:04:04;;;;;;;1.63;0.70;;;15.40;99.90;;;;;;5077625;28;20505;-76
2022/07/22 03:06:30;;;;;;;1.50;0.70;;;15.50;99.90;;;;;;5073348;28;20128;-75
2022/07/22 03:08:55;;;;;;;1.92;0.80;;;15.40;99.90;;;;;;5090967;28;20485;-75
2022/07/22 03:11:21;;;;;;;1.40;0.63;;;15.50;99.90;;;;;;5076427;28;20494;-75
2022/07/22 03:13:47;;;;;;;1.30;0.50;;;15.40;99.90;;;;;;5080893;28;20072;-75
2022/07/22 03:16:12;;;;;;;2.65;0.65;;;15.40;99.90;;;;;;5044228;28;20074;-75
2022/07/22 03:18:38;;;;;;;3.25;1.00;;;15.50;99.90;;;;;;5069700;28;20033;-75
2022/07/22 03:21:04;;;;;;;;;;;15.40;99.90;;;;;;5077573;28;20447;-76
2022/07/22 03:23:30;;;;;;;2.08;0.73;;;15.40;99.90;;;;;;5102206;28;19963;-75
2022/07/22 03:25:56;;;;;;;1.00;0.47;;;15.40;99.90;;;;;;5074830;28;20136;-75
2022/07/22 03:28:22;;;;;;;1.90;0.70;;;15.40;99.90;;;;;;5068180;28;20491;-75
2022/07/22 03:30:48;;;;;;;2.35;0.90;;;15.50;99.90;;;;;;5054430;28;20049;-75
2022/07/22 03:33:14;;;;;;;2.58;0.60;;;15.40;99.90;;;;;;5055068;28;20058;-75
2022/07/22 03:35:40;;;;;;;1.13;0.50;;;15.40;99.90;;;;;;5070289;28;20040;-75
2022/07/22 03:38:05;;;;;;;0.65;0.45;;;15.40;99.90;;;;;;5106085;28;20044;-75
2022/07/22 03:40:31;;;;;;;0.80;0.60;;;15.40;99.90;;;;;;5070251;28;20040;-75
2022/07/22 03:42:57;;;;;;;1.55;0.47;;;15.40;99.90;;;;;;5071405;28;20044;-75
2022/07/22 03:45:22;;;;;;;1.65;0.70;;;15.30;99.90;;;;;;5105927;28;20048;-75
2022/07/22 03:47:48;;;;;;;3.38;0.80;;;15.30;99.90;;;;;;5070671;28;20052;-75
2022/07/22 03:50:14;;;;;;;1.30;0.70;;;15.30;99.90;;;;;;5070696;28;20040;-75
2022/07/22 03:52:39;;;;;;;1.88;0.63;;;15.40;99.90;;;;;;5071546;28;20459;-75
2022/07/22 03:55:06;;;;;;;1.30;0.60;;;15.30;99.90;;;;;;5105769;28;20045;-75
2022/07/22 03:57:32;;;;;;;1.48;0.60;;;15.40;99.90;;;;;;5071624;28;20375;-75
2022/07/22 03:59:57;;;;;;;2.15;0.70;;;15.40;99.90;;;;;;5055343;28;20048;-75
2022/07/22 04:02:23;;;;;;;3.85;1.13;;;15.40;99.90;;;;;;5071155;28;20383;-75
2022/07/22 04:04:49;;;;;;;2.17;0.85;;;15.40;99.90;;;;;;5067445;28;20045;-75
2022/07/22 04:07:14;;;;;;;1.38;0.73;;;15.30;99.90;;;;;;5067238;28;20040;-75
2022/07/22 04:09:40;;;;;;;2.55;0.80;;;15.30;99.90;;;;;;5073706;28;20040;-75
2022/07/22 04:12:06;;;;;;;0.90;0.60;;;15.30;99.90;;;;;;5069730;28;20376;-74
2022/07/22 04:14:32;;;;;;;1.80;0.60;;;15.30;99.90;;;;;;5073916;28;20120;-74
2022/07/22 04:16:57;;;;;;;0.70;0.63;;;15.30;99.90;;;;;;5056980;28;20089;-74
2022/07/22 04:19:23;;;;;;;0.93;0.52;;;15.40;99.90;;;;;;5075742;28;20037;-74
2022/07/22 04:21:49;;;;;;;2.15;0.73;;;15.40;99.90;;;;;;5073488;28;20117;-74
2022/07/22 04:24:14;;;;;;;2.10;0.73;;;15.40;99.90;;;;;;5079017;28;20047;-74
2022/07/22 04:26:40;;;;;;;2.08;0.70;;;15.30;99.90;;;;;;5073474;28;20044;-74
2022/07/22 04:29:06;;;;;;;1.17;0.60;;;15.40;99.90;;;;;;5055268;28;20077;-74
2022/07/22 04:31:32;;;;;;;1.83;0.60;;;15.40;99.90;;;;;;5068948;28;20074;-74
2022/07/22 04:33:58;;;;;;;0.80;0.40;;;15.40;99.90;;;;;;5062525;28;20036;-74
2022/07/22 04:36:24;;;;;;;1.33;0.60;;;15.40;99.90;;;;;;5070472;28;20036;-74
2022/07/22 04:38:50;;;;;;;1.15;0.50;;;15.40;99.90;;;;;;5052890;28;20468;-73
2022/07/22 04:41:15;;;;;;;1.20;0.50;;;15.40;99.90;;;;;;5070868;28;20420;-74
2022/07/22 04:43:41;;;;;;;1.85;0.70;;;15.40;99.90;;;;;;5070714;28;20098;-74
2022/07/22 04:46:07;;;;;;;2.47;0.80;;;15.40;99.90;;;;;;5073694;28;20048;-74
2022/07/22 04:48:33;;;;;;;1.50;0.80;;;15.30;99.90;;;;;;5056279;28;20127;-74
2022/07/22 04:51:02;;;;;;;2.17;0.68;;;15.40;99.90;;;;;;5068393;28;20106;-74
2022/07/22 04:53:28;;;;;;;1.92;0.60;;;15.40;99.90;;;;;;5069980;28;20467;-74
2022/07/22 04:55:54;;;;;;;;;;;15.40;99.90;;;;;;5094389;28;20045;-74
2022/07/22 04:58:20;;;;;;;2.63;0.52;;;15.50;99.90;;;;;;5053999;28;19999;-74
2022/07/22 05:00:46;;;;;;;0.95;0.50;;;15.40;99.90;;;;;;5068699;28;20394;-74
2022/07/22 05:03:12;;;;;;;;;;;15.40;99.90;;;;;;5067494;28;20044;-74
2022/07/22 05:05:37;;;;;;;1.33;0.50;;;15.40;99.90;;;;;;5083965;28;20344;-74
2022/07/22 05:08:03;;;;;;;0.65;0.50;;;15.50;99.90;;;;;;5070233;28;20064;-75
2022/07/22 05:10:29;;;;;;;3.25;0.70;;;15.40;99.90;;;;;;5066588;28;20044;-76
2022/07/22 05:12:55;;;;;;;1.33;0.70;;;15.40;99.90;;;;;;5101332;27;20128;-76
2022/07/22 05:15:20;;;;;;;0.93;0.40;;;15.50;99.90;;;;;;5070017;28;20075;-75
2022/07/22 05:17:46;;;;;;;1.52;0.60;;;15.50;99.90;;;;;;5073678;28;20151;-76
2022/07/22 05:20:12;;;;;;;0.75;0.40;;;15.50;99.90;;;;;;5068964;28;20040;-75
2022/07/22 05:22:37;;;;;;;1.10;0.50;;;15.50;99.90;;;;;;5049665;28;20033;-76
2022/07/22 05:25:04;;;;;;;1.90;0.52;;;15.60;99.90;;;;;;5064094;28;20152;-76
2022/07/22 05:27:29;;;;;;;;;;;15.60;99.90;;;;;;5060063;28;20047;-76
2022/07/22 05:29:56;;;;;;;1.23;0.50;;;15.60;99.90;;;;;;5084855;28;19925;-75
2022/07/22 05:32:22;;;;;;;0.88;0.47;;;15.70;99.90;;;;;;5060326;28;20154;-76
2022/07/22 05:34:48;;;;;;;0.82;0.40;;;15.70;99.90;;;;;;5075847;28;20523;-76
2022/07/22 05:37:15;;;;;;;2.78;0.40;;;15.70;99.90;;;;;;5053268;28;20052;-75
2022/07/22 05:39:42;;;;;;;1.00;0.50;;;15.70;99.90;;;;;;5079733;28;20044;-75
2022/07/22 05:42:08;;;;;;;1.15;0.50;;;15.70;99.90;;;;;;5072435;28;20044;-76
2022/07/22 05:44:33;;;;;;;0.60;0.47;;;15.70;99.90;;;;;;5103339;28;20048;-75
2022/07/22 05:46:59;;;;;;;1.10;0.50;;;15.70;99.90;;;;;;5048709;28;20048;-76
2022/07/22 05:49:26;;;;;;;0.70;0.38;;;15.70;99.90;;;;;;5068043;28;20475;-75
2022/07/22 05:51:53;;;;;;;1.50;0.50;;;15.80;99.90;;;;;;5052530;28;20059;-75
2022/07/22 05:54:20;;;;;;;0.90;0.45;;;15.80;99.90;;;;;;5065737;28;20131;-75
2022/07/22 05:56:45;;;;;;;1.60;0.50;;;15.80;99.90;;;;;;5068225;28;20376;-75
2022/07/22 05:59:11;;;;;;;2.60;0.60;;;15.80;99.90;;;;;;5102807;28;20159;-75
2022/07/22 06:01:37;;;;;;;1.30;0.50;;;15.80;99.90;;;;;;5068557;28;20044;-75
2022/07/22 06:04:02;;;;;;;1.00;0.52;;;15.80;99.90;;;;;;5069359;28;20052;-75
2022/07/22 06:06:28;;;;;;;1.48;0.52;;;15.90;99.90;;;;;;5052323;28;20116;-75
2022/07/22 06:08:54;;;;;;;1.50;0.50;;;16.00;99.90;;;;;;5053712;28;20044;-74
2022/07/22 06:11:19;;;;;;;1.70;0.55;;;15.90;99.90;;;;;;5069524;28;20513;-75
2022/07/22 06:13:45;;;;;;;1.15;0.55;;;16.00;99.90;;;;;;5039342;28;20039;-76
2022/07/22 06:16:11;;;;;;;0.70;0.30;;;16.00;99.90;;;;;;5070964;28;20544;-76
2022/07/22 06:18:36;;;;;;;1.60;0.65;;;16.10;99.90;;;;;;5061317;28;20090;-76
2022/07/22 06:21:04;;;;;;;1.50;0.50;;;16.00;99.90;;;;;;5075124;28;20329;-75
2022/07/22 06:23:29;;;;;;;0.60;0.47;;;16.10;99.90;;;;;;5048397;28;20040;-75
2022/07/22 06:25:55;;;;;;;1.10;0.50;;;16.20;99.90;;;;;;5073970;28;20484;-74
2022/07/22 06:28:21;;;;;;;1.10;0.50;;;16.10;99.90;;;;;;5078707;28;20120;-76
2022/07/22 06:30:47;;;;;;;1.55;0.60;;;16.10;99.90;;;;;;5062005;28;20105;-75
2022/07/22 06:33:13;;;;;;;0.77;0.32;;;16.20;99.90;;;;;;5065972;28;20044;-76
2022/07/22 06:35:42;;;;;;;0.77;0.40;;;16.20;99.90;;;;;;5035572;28;20040;-76
2022/07/22 06:38:08;;;;;;;1.13;0.43;;;16.20;99.90;;;;;;5069420;28;20048;-76
2022/07/22 06:40:34;;;;;;;0.73;0.50;;;16.30;99.90;;;;;;5076242;28;20098;-77
2022/07/22 06:42:59;;;;;;;;;;;16.30;99.90;;;;;;5052527;28;20119;-76
2022/07/22 06:45:25;;;;;;;1.35;0.50;;;16.30;99.90;;;;;;5068410;28;20018;-76
2022/07/22 06:47:51;;;;;;;2.72;0.70;;;16.40;99.90;;;;;;5069561;28;20037;-75
2022/07/22 06:50:17;;;;;;;1.08;0.55;;;16.30;99.90;;;;;;5074176;28;20716;-76
2022/07/22 06:52:43;;;;;;;0.93;0.50;;;16.30;99.90;;;;;;5070013;28;20061;-75
2022/07/22 06:55:11;;;;;;;0.50;0.38;;;16.30;99.90;;;;;;5063814;28;20036;-75
2022/07/22 06:57:37;;;;;;;1.40;0.40;;;16.40;99.90;;;;;;5049035;28;20045;-74
2022/07/22 07:00:06;;;;;;;0.85;0.30;;;16.50;99.90;;;;;;5073604;28;20098;-75
2022/07/22 07:02:32;;;;;;;1.10;0.50;;;16.60;99.90;;;;;;5052191;28;20483;-74
2022/07/22 07:04:57;;;;;;;0.93;0.43;;;16.60;99.90;;;;;;5065347;28;20036;-74
2022/07/22 07:07:23;;;;;;;1.10;0.50;;;16.60;99.90;;;;;;5048118;28;20471;-74
2022/07/22 07:09:49;;;;;;;0.57;0.30;;;16.70;99.90;;;;;;5043521;28;20072;-74
2022/07/22 07:12:14;;;;;;;1.10;0.55;;;16.80;99.90;;;;;;5077149;28;20047;-74
2022/07/22 07:14:40;;;;;;;1.05;0.60;;;16.80;99.90;;;;;;5058625;28;20067;-74
2022/07/22 07:17:06;;;;;;;0.82;0.40;;;16.80;99.90;;;;;;5102148;28;20072;-74
2022/07/22 07:19:32;;;;;;;2.22;0.57;;;16.80;99.90;;;;;;5102423;28;20601;-74
2022/07/22 07:21:57;;;;;;;;;;;16.80;99.90;;;;;;5102136;28;20437;-74
2022/07/22 07:24:23;;;;;;;2.92;0.75;;;16.80;99.90;;;;;;5071523;28;19917;-74
2022/07/22 07:26:49;;;;;;;2.28;0.70;;;16.70;99.90;;;;;;5105798;28;20364;-74
2022/07/22 07:29:14;;;;;;;1.48;0.52;;;16.70;99.90;;;;;;5112402;27;20082;-75
2022/07/22 07:31:40;;;;;;;0.52;0.35;;;16.80;99.90;;;;;;5092517;28;20074;-75
2022/07/22 07:34:06;;;;;;;0.52;0.30;;;16.90;99.90;;;;;;5092583;28;20093;-74
2022/07/22 07:36:31;;;;;;;0.47;0.30;;;17.00;99.90;;;;;;5075448;28;20097;-74
2022/07/22 07:38:57;;;;;;;0.80;0.45;;;17.00;99.90;;;;;;5126913;27;20036;-74
2022/07/22 07:41:23;;;;;;;1.23;0.40;;;16.90;99.90;;;;;;5109712;28;20044;-74
2022/07/22 07:43:48;;;;;;;0.82;0.60;;;17.00;99.90;;;;;;5123830;27;20040;-74
2022/07/22 07:46:14;;;;;;;2.00;0.73;;;16.90;99.90;;;;;;5085311;28;20048;-74
2022/07/22 07:48:40;;;;;;;1.38;0.45;;;17.00;99.90;;;;;;5075868;28;20040;-74
2022/07/22 07:51:06;;;;;;;1.48;0.57;;;17.00;99.90;;;;;;5126480;27;20475;-74
2022/07/22 07:53:31;;;;;;;1.05;0.50;;;17.10;99.90;;;;;;5109351;28;20040;-74
2022/07/22 07:55:57;;;;;;;1.88;0.50;;;17.10;99.90;;;;;;5126125;27;20048;-75
2022/07/22 07:58:23;;;;;;;1.00;0.50;;;17.10;99.90;;;;;;5092619;28;20128;-74
2022/07/22 08:00:48;;;;;;;0.82;0.40;;;17.20;99.90;;;;;;5092031;28;20411;-74
2022/07/22 08:03:14;;;;;;;;;;;17.20;99.90;;;;;;5092852;28;20134;-75
2022/07/22 08:05:40;;;;;;;0.93;0.40;;;17.20;99.90;;;;;;5126408;27;20379;-74
2022/07/22 08:08:07;;;;;;;1.35;0.50;;;17.20;99.90;;;;;;5109398;27;20052;-74
2022/07/22 08:10:32;;;;;;;2.05;0.57;;;17.10;99.90;;;;;;5125706;27;20040;-74
2022/07/22 08:12:59;;;;;;;;;;;17.20;99.90;;;;;;5092506;28;20044;-74
2022/07/22 08:15:26;;;;;;;1.10;0.50;;;17.20;99.90;;;;;;5126212;27;20003;-75
2022/07/22 08:17:53;;;;;;;1.15;0.43;;;17.20;99.90;;;;;;5125919;27;20131;-74
2022/07/22 08:20:19;;;;;;;0.60;0.50;;;17.20;99.90;;;;;;5126088;27;20125;-73
2022/07/22 08:22:44;;;;;;;;;;;17.20;99.90;;;;;;5126420;27;20205;-72
2022/07/22 08:25:10;;;;;;;1.83;0.55;;;17.20;99.90;;;;;;5125335;27;20006;-72
2022/07/22 08:27:36;;;;;;;0.80;0.43;;;17.10;99.90;;;;;;5125172;27;20036;-72
2022/07/22 08:30:05;;;;;;;0.77;0.40;;;17.10;99.90;;;;;;5078731;28;20190;-72
2022/07/22 08:32:31;;;;;;;1.52;0.45;;;17.10;99.90;;;;;;5072577;28;20068;-75
2022/07/22 08:34:57;;;;;;;3.30;0.60;;;17.10;99.90;;;;;;5071404;28;20364;-74
2022/07/22 08:37:23;;;;;;;;;;;17.10;99.90;;;;;;5105365;28;20042;-74
2022/07/22 08:39:49;;;;;;;1.45;0.50;;;17.10;99.90;;;;;;5069801;28;20264;-74
2022/07/22 08:42:15;;;;;;;1.77;0.50;;;17.10;99.90;;;;;;5071036;28;20044;-74
2022/07/22 08:44:40;;;;;;;;;;;17.10;99.90;;;;;;5105688;28;20048;-74
2022/07/22 08:47:06;;;;;;;2.47;0.50;;;17.00;99.90;;;;;;5054460;28;19916;-74
2022/07/22 08:49:32;;;;;;;1.73;0.77;;;16.90;99.90;;;;;;5104886;28;20093;-74
2022/07/22 08:51:58;;;;;;;2.17;0.60;;;16.90;99.90;;;;;;5070954;28;20410;-74
2022/07/22 08:54:23;;;;;;;0.63;0.40;;;16.80;99.90;;;;;;5104328;28;20553;-75
2022/07/22 08:56:50;;;;;;;;;;;16.80;99.90;;;;;;5071036;28;20421;-75
2022/07/22 08:59:16;;;;;;;1.33;0.50;;;16.90;99.90;;;;;;5070702;28;19922;-75
2022/07/22 09:02:04;;;;;;;2.20;0.60;;;16.80;99.90;;;;;;5104461;28;20282;-75
2022/07/22 09:04:31;;;;;;;0.90;0.50;;;16.90;99.90;;;;;;5070311;28;20367;-75
2022/07/22 09:06:57;;;;;;;0.77;0.40;;;17.00;99.90;;;;;;5070572;28;20041;-75
2022/07/22 09:09:33;;;;;;;1.45;0.50;;;17.00;99.90;;;;;;5070976;28;20421;-75
2022/07/22 09:12:08;;;;;;;0.80;0.40;;;17.00;99.90;;;;;;5070333;28;20048;-75
2022/07/22 09:15:04;;;;;;;1.05;0.40;;;17.00;99.90;;;;;;5070512;28;20132;-74
2022/07/22 09:17:35;;;;;;;1.63;0.50;;;17.20;99.90;;;;;;5091474;28;20048;-75
2022/07/22 09:20:05;;;;;;;1.23;0.40;;;17.10;99.90;;;;;;5070141;28;20076;-74
2022/07/22 09:22:42;;;;;;;1.77;0.65;;;17.20;99.90;;;;;;5087263;28;20044;-76
2022/07/22 09:25:27;;;;;;;2.70;0.50;;;17.20;99.90;;;;;;5053686;28;20041;-74
2022/07/22 09:27:56;;;;;;;0.73;0.40;;;17.20;99.90;;;;;;5104233;28;20052;-74
2022/07/22 09:30:24;;;;;;;0.90;0.47;;;17.20;99.90;;;;;;5053356;28;20067;-75
2022/07/22 09:32:54;;;;;;;1.40;0.40;;;17.30;99.90;;;;;;5061044;28;20048;-75
2022/07/22 09:35:20;;;;;;;1.25;0.50;;;17.30;99.90;;;;;;5069843;28;20079;-75
2022/07/22 09:37:56;;;;;;;;;;;17.30;99.90;;;;;;5070651;28;20106;-74
2022/07/22 09:40:30;;;;;;;0.70;0.38;;;17.40;99.90;;;;;;5070275;28;19942;-74
2022/07/22 09:43:02;;;;;;;1.33;0.50;;;17.50;99.90;;;;;;5086805;28;20040;-75
2022/07/22 09:45:30;;;;;;;1.77;0.30;;;17.40;99.90;;;;;;5070130;28;20033;-74
2022/07/22 09:47:57;;;;;;;1.40;0.50;;;17.30;99.90;;;;;;5069547;28;20102;-74
2022/07/22 09:50:29;;;;;;;1.77;0.45;;;17.30;99.90;;;;;;5070050;28;20044;-75
2022/07/22 09:52:57;;;;;;;0.70;0.22;;;17.30;99.90;;;;;;5069538;28;20060;-74
2022/07/22 09:55:24;;;;;;;0.70;0.30;;;17.30;99.90;;;;;;5071362;28;20323;-74
2022/07/22 09:57:51;;;;;;;0.68;0.28;;;17.50;99.90;;;;;;5103992;28;20396;-74
2022/07/22 10:00:20;;;;;;;0.95;0.40;;;17.70;99.90;;;;;;5071150;28;20051;-74
2022/07/22 10:03:06;;;;;;;2.58;0.60;;;17.70;99.90;;;;;;5069728;28;20076;-74
2022/07/22 10:05:36;;;;;;;1.45;0.40;;;17.90;99.90;;;;;;5103586;28;20467;-74
2022/07/22 10:08:04;;;;;;;1.42;0.50;;;18.00;99.90;;;;;;5069688;28;20052;-74
2022/07/22 10:10:32;;;;;;;1.95;0.38;;;18.00;99.90;;;;;;5049937;28;20720;-74
2022/07/22 10:12:59;;;;;;;1.00;0.35;;;18.10;99.90;;;;;;5066255;28;20041;-75
2022/07/22 10:15:26;;;;;;;0.90;0.30;;;18.20;99.90;;;;;;5049740;28;20047;-75
2022/07/22 10:17:55;;;;;;;2.20;0.52;;;18.10;99.90;;;;;;5066307;28;20045;-74
2022/07/22 10:20:23;;;;;;;1.05;0.30;;;18.20;99.90;;;;;;5066669;28;20045;-74
2022/07/22 10:22:56;;;;;;;0.80;0.47;;;18.20;99.90;;;;;;5049559;28;20090;-75
2022/07/22 10:25:25;;;;;;;0.75;0.30;;;18.30;99.90;;;;;;5066205;28;20446;-74
2022/07/22 10:27:57;;;;;;;0.75;0.35;;;18.40;99.90;;;;;;5049311;28;20049;-74
2022/07/22 10:30:35;;;;;;;1.05;0.35;;;18.40;99.90;;;;;;5052171;28;20056;-74
2022/07/22 10:33:11;;;;;;;0.32;0.15;;;18.50;99.90;;;;;;5069066;28;20127;-75
2022/07/22 10:35:43;;;;;;;0.65;0.25;;;18.40;99.90;;;;;;5069407;28;20044;-75
2022/07/22 10:38:10;;;;;;;0.85;0.17;;;18.20;99.90;;;;;;5069464;28;20052;-75
2022/07/22 10:41:03;;;;;;;0.60;0.40;;;18.30;99.90;;;;;;5052408;28;20036;-75
2022/07/22 10:43:47;;;;;;;1.20;0.38;;;18.40;99.90;;;;;;5069180;28;20139;-75
2022/07/22 10:46:13;;;;;;;0.57;0.30;;;18.30;99.90;;;;;;5052577;28;20072;-74
2022/07/22 10:48:39;;;;;;;;;;;18.40;99.90;;;;;;5103651;28;20047;-75
2022/07/22 10:51:16;;;;;;;0.25;0.20;;;18.50;99.90;;;;;;5069070;28;19920;-75
2022/07/22 10:53:56;;;;;;;0.98;0.40;;;18.30;99.90;;;;;;5052506;28;20048;-75
2022/07/22 10:56:31;;;;;;;0.57;0.20;;;18.40;99.90;;;;;;5036222;28;20083;-75
2022/07/22 10:58:59;;;;;;;1.15;0.50;;;18.50;99.90;;;;;;5069383;28;20035;-74
2022/07/22 11:01:29;;;;;;;1.15;0.40;;;18.50;99.90;;;;;;5073231;28;20071;-75
2022/07/22 11:04:06;;;;;;;1.27;0.30;;;18.40;99.90;;;;;;5073312;28;20044;-74
2022/07/22 11:06:32;;;;;;;1.20;0.30;;;18.40;99.90;;;;;;5072806;28;20123;-75
2022/07/22 11:09:01;;;;;;;;;;;18.50;99.90;;;;;;5073637;28;20139;-75
2022/07/22 11:11:33;;;;;;;0.47;0.15;;;18.40;99.90;;;;;;5089970;28;19998;-75
2022/07/22 11:13:58;;;;;;;0.47;0.30;;;18.40;99.90;;;;;;5072905;28;20484;-75
2022/07/22 11:16:25;;;;;;;;;;;18.30;99.90;;;;;;5073107;28;20055;-75
2022/07/22 11:18:52;;;;;;;0.55;0.30;;;18.40;99.90;;;;;;5072389;28;19927;-75
2022/07/22 11:21:27;;;;;;;1.40;0.30;;;18.30;99.90;;;;;;5061900;28;20459;-74
2022/07/22 11:23:55;;;;;;;1.10;0.28;;;18.50;99.90;;;;;;5064884;28;20839;-74
2022/07/22 11:26:40;;;;;;;0.70;0.30;;;18.50;99.90;;;;;;5056200;28;20056;-75
2022/07/22 11:29:07;;;;;;;0.40;0.20;;;18.70;99.90;;;;;;5078154;28;20138;-74
2022/07/22 11:31:33;;;;;;;1.45;0.30;;;18.70;99.90;;;;;;5096096;28;20059;-75
2022/07/22 11:34:10;;;;;;;0.60;0.20;;;18.70;99.90;;;;;;5113620;27;20041;-75
2022/07/22 11:36:38;;;;;;;0.80;0.20;;;18.80;99.90;;;;;;5096031;28;20052;-75
2022/07/22 11:39:05;;;;;;;0.75;0.32;;;18.60;99.90;;;;;;5095429;28;20111;-75
2022/07/22 11:41:31;;;;;;;0.82;0.20;;;18.90;99.90;;;;;;5095744;28;20531;-75
2022/07/22 11:43:57;;;;;;;;;;;18.90;99.90;;;;;;5096444;28;20047;-75
2022/07/22 11:46:25;;;;;;;0.25;0.20;;;18.90;99.90;;;;;;5113073;28;19927;-75
2022/07/22 11:48:56;;;;;;;0.30;0.20;;;19.00;99.90;;;;;;5096090;28;20080;-75
2022/07/22 11:51:28;;;;;;;0.17;0.10;;;18.90;99.90;;;;;;5079041;28;20120;-75
2022/07/22 11:53:54;;;;;;;0.52;0.10;;;18.80;99.90;;;;;;5095860;28;20040;-73
2022/07/22 11:56:20;;;;;;;;;;;18.80;99.90;;;;;;5095963;28;20051;-73
2022/07/22 11:58:49;;;;;;;0.60;0.10;;;18.80;99.90;;;;;;5095255;28;19920;-73
2022/07/22 12:01:16;;;;;;;0.82;0.30;;;18.70;99.90;;;;;;5095706;28;20044;-73
2022/07/22 12:03:51;;;;;;;0.50;0.20;;;18.60;99.90;;;;;;5095538;28;20047;-73
2022/07/22 12:06:18;;;;;;;1.67;0.20;;;18.70;99.90;;;;;;5095565;28;20036;-73
2022/07/22 12:08:46;;;;;;;0.57;0.17;;;18.70;99.90;;;;;;5078615;28;20186;-73
2022/07/22 12:11:17;;;;;;;0.73;0.20;;;18.70;99.90;;;;;;5094913;28;20402;-73
2022/07/22 12:13:48;;;;;;;0.63;0.20;;;18.90;99.90;;;;;;5094572;28;20229;-73
2022/07/22 12:16:28;;;;;;;0.85;0.30;;;18.90;99.90;;;;;;5077171;28;20040;-73
2022/07/22 12:19:03;;;;;;;0.38;0.20;;;19.00;99.90;;;;;;5074743;28;20028;-73
2022/07/22 12:21:35;;;;;;;0.10;0.10;;;19.20;99.90;;;;;;5108342;28;20058;-72
2022/07/22 12:24:09;;;;;;;0.50;0.17;;;19.40;99.90;;;;;;5075139;28;20044;-72
2022/07/22 12:26:43;;;;;;;0.22;0.15;;;19.60;99.90;;;;;;5074610;28;20069;-72
2022/07/22 12:29:26;;;;;;;0.55;0.20;;;19.60;99.90;;;;;;5074372;28;20506;-72
2022/07/22 12:31:54;;;;;;;0.20;0.20;;;19.50;99.90;;;;;;5078950;28;20050;-73
2022/07/22 12:35:00;;;;;;;0.30;0.13;;;19.40;99.90;;;;;;5094824;28;20048;-72
2022/07/22 12:37:43;;;;;;;0.55;0.20;;;19.30;99.90;;;;;;5083728;28;20086;-75
2022/07/22 12:40:16;;;;;;;0.60;0.35;;;19.40;99.90;;;;;;5094888;28;20482;-75
2022/07/22 12:42:46;;;;;;;0.52;0.20;;;19.20;99.90;;;;;;5094621;28;20094;-75
2022/07/22 12:45:14;;;;;;;0.30;0.30;;;19.30;99.90;;;;;;5094827;28;20069;-73
2022/07/22 12:48:05;;;;;;;0.68;0.30;;;19.10;99.90;;;;;;5094254;28;20126;-73
2022/07/22 12:50:34;;;;;;;0.20;0.20;;;19.20;99.90;;;;;;5077457;28;20467;-72
2022/07/22 12:53:18;;;;;;;0.57;0.20;;;19.20;99.90;;;;;;5093944;28;20095;-72
2022/07/22 12:55:56;;;;;;;0.75;0.20;;;19.20;99.90;;;;;;5077198;28;20080;-72